Time;durP1;ratioP1;P1;durP2;ratioP2;P2;SDS_P1;SDS_P2;PMS_P1;PMS_P2;Temp;Humidity;BMP_temperature;BMP_pressure;BME280_temperature;BME280_humidity;BME280_pressure;Samples;Min_cycle;Max_cycle;Signal;HPM_P1;HPM_P2
2022/10/27 00:01:30;;;;;;;0.30;0.30;;;11.60;99.90;;;;;;5052953;28;20059;-78
2022/10/27 00:03:56;;;;;;;0.40;0.40;;;11.50;99.90;;;;;;5039409;28;20045;-75
2022/10/27 00:06:21;;;;;;;0.30;0.30;;;11.50;99.90;;;;;;5038291;28;20048;-76
2022/10/27 00:08:49;;;;;;;0.35;0.35;;;11.50;99.90;;;;;;5043906;28;20047;-77
2022/10/27 00:11:15;;;;;;;0.20;0.20;;;11.40;99.90;;;;;;5061676;28;20060;-77
2022/10/27 00:13:41;;;;;;;0.40;0.40;;;11.50;99.90;;;;;;5058990;28;20077;-77
2022/10/27 00:16:11;;;;;;;0.30;0.30;;;11.40;99.90;;;;;;5034440;28;20190;-77
2022/10/27 00:18:37;;;;;;;0.30;0.30;;;11.50;99.90;;;;;;5065407;28;20477;-76
2022/10/27 00:21:05;;;;;;;0.55;0.50;;;11.50;99.90;;;;;;5061931;28;20115;-76
2022/10/27 00:23:32;;;;;;;0.30;0.30;;;11.40;99.90;;;;;;5056899;28;20076;-77
2022/10/27 00:25:59;;;;;;;0.30;0.30;;;11.40;99.90;;;;;;5041075;28;20125;-76
2022/10/27 00:28:25;;;;;;;0.30;0.30;;;11.50;99.90;;;;;;5053423;28;20491;-76
2022/10/27 00:31:10;;;;;;;0.35;0.35;;;11.60;99.90;;;;;;5058851;28;20497;-76
2022/10/27 00:33:40;;;;;;;0.75;0.75;;;11.60;99.90;;;;;;5057629;28;20059;-77
2022/10/27 00:36:11;;;;;;;0.30;0.30;;;11.70;99.90;;;;;;5039617;28;20047;-76
2022/10/27 00:38:37;;;;;;;0.40;0.40;;;11.70;99.90;;;;;;5042277;28;20112;-77
2022/10/27 00:41:04;;;;;;;0.35;0.35;;;11.70;99.90;;;;;;5057401;28;20116;-77
2022/10/27 00:43:32;;;;;;;0.47;0.47;;;11.70;99.90;;;;;;5035641;28;20041;-76
2022/10/27 00:46:17;;;;;;;0.30;0.30;;;11.70;99.90;;;;;;5055685;28;20045;-76
2022/10/27 00:48:43;;;;;;;0.30;0.30;;;11.70;99.90;;;;;;5053061;28;20041;-76
2022/10/27 00:51:14;;;;;;;0.30;0.30;;;11.70;99.90;;;;;;5068732;28;20574;-77
2022/10/27 00:53:40;;;;;;;0.30;0.30;;;11.70;99.90;;;;;;5068829;28;20037;-75
2022/10/27 00:56:06;;;;;;;0.40;0.40;;;11.60;99.90;;;;;;5063919;28;20390;-76
2022/10/27 00:58:32;;;;;;;;;;;11.60;99.90;;;;;;5040579;28;20033;-76
2022/10/27 01:00:59;;;;;;;0.30;0.30;;;11.60;99.90;;;;;;5062196;28;19916;-76
2022/10/27 01:03:25;;;;;;;0.95;0.85;;;11.70;99.90;;;;;;5040610;28;20582;-77
2022/10/27 01:05:52;;;;;;;0.30;0.30;;;11.70;99.90;;;;;;5051413;28;20115;-76
2022/10/27 01:08:20;;;;;;;0.60;0.60;;;11.90;99.90;;;;;;5034487;28;20398;-76
2022/10/27 01:10:45;;;;;;;0.47;0.47;;;11.90;99.90;;;;;;5046331;28;20045;-76
2022/10/27 01:13:11;;;;;;;0.30;0.30;;;12.00;99.90;;;;;;5061322;28;20417;-76
2022/10/27 01:16:02;;;;;;;0.28;0.28;;;12.00;99.90;;;;;;5042631;28;20078;-76
2022/10/27 01:18:49;;;;;;;0.40;0.40;;;12.00;99.90;;;;;;5050845;28;20084;-77
2022/10/27 01:21:34;;;;;;;;;;;12.00;99.90;;;;;;5059249;28;20133;-75
2022/10/27 01:24:37;;;;;;;0.35;0.35;;;12.00;99.90;;;;;;5051991;28;19917;-77
2022/10/27 01:27:07;;;;;;;0.40;0.40;;;12.00;99.90;;;;;;5051000;28;20052;-75
2022/10/27 01:29:53;;;;;;;0.20;0.20;;;12.00;99.90;;;;;;5041892;28;20058;-76
2022/10/27 01:32:34;;;;;;;1.00;1.00;;;12.00;99.90;;;;;;5049562;28;20528;-76
2022/10/27 01:35:18;;;;;;;0.40;0.40;;;12.00;99.90;;;;;;5047893;28;20530;-76
2022/10/27 01:38:22;;;;;;;0.40;0.40;;;12.10;99.90;;;;;;5054478;28;20025;-77
2022/10/27 01:40:54;;;;;;;0.30;0.30;;;12.20;99.90;;;;;;5057300;28;20052;-77
2022/10/27 01:43:25;;;;;;;1.98;0.68;;;12.20;99.90;;;;;;5037043;28;20041;-77
2022/10/27 01:45:52;;;;;;;0.40;0.40;;;12.30;99.90;;;;;;5050196;28;20041;-77
2022/10/27 01:48:19;;;;;;;0.30;0.30;;;12.30;99.90;;;;;;5039250;28;20045;-78
2022/10/27 01:50:45;;;;;;;3.30;1.65;;;12.30;99.90;;;;;;5051174;28;20037;-77
2022/10/27 01:53:11;;;;;;;0.40;0.40;;;12.40;99.90;;;;;;5048887;28;20549;-77
2022/10/27 01:55:47;;;;;;;;;;;12.40;99.90;;;;;;5065328;28;20079;-77
2022/10/27 01:58:26;;;;;;;0.38;0.38;;;12.40;99.90;;;;;;5058925;28;20023;-76
2022/10/27 02:01:20;;;;;;;0.40;0.40;;;12.40;99.90;;;;;;5068527;28;20044;-77
2022/10/27 02:03:52;;;;;;;0.95;0.60;;;12.40;99.90;;;;;;5056011;28;20099;-77
2022/10/27 02:07:05;;;;;;;0.20;0.20;;;12.40;99.90;;;;;;5065209;28;20081;-78
2022/10/27 02:09:45;;;;;;;0.40;0.40;;;12.50;99.90;;;;;;5042606;28;20067;-77
2022/10/27 02:12:29;;;;;;;0.45;0.45;;;12.50;99.90;;;;;;5070108;28;20061;-77
2022/10/27 02:15:01;;;;;;;0.55;0.55;;;12.50;99.90;;;;;;5068017;28;20235;-78
2022/10/27 02:17:33;;;;;;;0.40;0.40;;;12.50;99.90;;;;;;5053750;28;20033;-77
2022/10/27 02:20:03;;;;;;;0.30;0.30;;;12.50;99.90;;;;;;5061788;28;20099;-76
2022/10/27 02:22:31;;;;;;;0.40;0.40;;;12.50;99.90;;;;;;5057699;28;20430;-77
2022/10/27 02:24:57;;;;;;;0.65;0.65;;;12.50;99.90;;;;;;5036528;28;20393;-76
2022/10/27 02:27:26;;;;;;;;;;;12.50;99.90;;;;;;5056084;28;20092;-76
2022/10/27 02:29:56;;;;;;;0.38;0.38;;;12.50;99.90;;;;;;5038195;28;19978;-76
2022/10/27 02:32:23;;;;;;;0.40;0.40;;;12.50;99.90;;;;;;5045467;28;20378;-76
2022/10/27 02:34:50;;;;;;;0.57;0.57;;;12.50;99.90;;;;;;5054413;28;20048;-76
2022/10/27 02:37:38;;;;;;;1.60;0.60;;;12.50;99.90;;;;;;5073466;28;20063;-77
2022/10/27 02:40:04;;;;;;;0.40;0.40;;;12.50;99.90;;;;;;5058306;28;20037;-78
2022/10/27 02:42:30;;;;;;;0.50;0.50;;;12.50;99.90;;;;;;5070810;28;20055;-77
2022/10/27 02:44:56;;;;;;;0.40;0.40;;;12.50;99.90;;;;;;5048855;28;20119;-76
2022/10/27 02:47:21;;;;;;;0.30;0.30;;;12.50;99.90;;;;;;5056577;28;20050;-76
2022/10/27 02:49:47;;;;;;;0.30;0.30;;;12.50;99.90;;;;;;5050523;28;20045;-76
2022/10/27 02:52:13;;;;;;;0.35;0.35;;;12.50;99.90;;;;;;5042751;28;20045;-75
2022/10/27 02:54:41;;;;;;;0.40;0.40;;;12.50;99.90;;;;;;5066435;28;20041;-77
2022/10/27 02:57:07;;;;;;;0.20;0.20;;;12.50;99.90;;;;;;5032228;28;20391;-77
2022/10/27 02:59:32;;;;;;;;;;;12.50;99.90;;;;;;5065086;28;20101;-76
2022/10/27 03:01:58;;;;;;;;;;;12.50;99.90;;;;;;5042099;28;20035;-77
2022/10/27 03:04:24;;;;;;;;;;;12.50;99.90;;;;;;5047059;28;19916;-75
2022/10/27 03:06:50;;;;;;;;;;;12.50;99.90;;;;;;5037990;28;19948;-76
2022/10/27 03:09:15;;;;;;;;;;;12.40;99.90;;;;;;5050802;28;19924;-76
2022/10/27 03:11:41;;;;;;;;;;;12.40;99.90;;;;;;5050018;28;19970;-76
2022/10/27 03:14:06;;;;;;;;;;;12.40;99.90;;;;;;5066630;28;19921;-76
2022/10/27 03:16:32;;;;;;;;;;;12.30;99.90;;;;;;5060490;28;20073;-77
2022/10/27 03:18:57;;;;;;;;;;;12.30;99.90;;;;;;5042833;28;19938;-77
2022/10/27 03:21:23;;;;;;;;;;;12.30;99.90;;;;;;5062419;28;20066;-76
2022/10/27 03:23:49;;;;;;;;;;;12.30;99.90;;;;;;5057029;28;19986;-76
2022/10/27 03:26:14;;;;;;;;;;;12.30;99.90;;;;;;5052788;28;19943;-76
2022/10/27 03:28:40;;;;;;;;;;;12.40;99.90;;;;;;5057549;28;19920;-76
2022/10/27 03:31:05;;;;;;;;;;;12.40;99.90;;;;;;5061338;28;19971;-77
2022/10/27 03:33:31;;;;;;;;;;;12.40;99.90;;;;;;5053448;28;20362;-77
2022/10/27 03:35:57;;;;;;;;;;;12.40;99.90;;;;;;5028570;28;19923;-77
2022/10/27 03:38:29;;;;;;;;;;;12.50;99.90;;;;;;5059231;28;19924;-78
2022/10/27 03:40:54;;;;;;;;;;;12.60;99.90;;;;;;5037214;28;20385;-79
2022/10/27 03:43:20;;;;;;;;;;;12.60;99.90;;;;;;5038614;28;19925;-78
2022/10/27 03:45:47;;;;;;;;;;;12.60;99.90;;;;;;5059916;28;19920;-78
2022/10/27 03:48:12;;;;;;;;;;;12.70;99.90;;;;;;5052767;28;20305;-78
2022/10/27 03:50:38;;;;;;;;;;;12.70;99.90;;;;;;5020538;28;19927;-78
2022/10/27 03:53:04;;;;;;;;;;;12.80;99.90;;;;;;5067745;28;19916;-78
2022/10/27 03:55:30;;;;;;;;;;;12.80;99.90;;;;;;5057057;28;20010;-77
2022/10/27 03:57:56;;;;;;;;;;;12.80;99.90;;;;;;5032807;28;19921;-79
2022/10/27 04:00:22;;;;;;;;;;;12.70;99.90;;;;;;5038576;28;19967;-79
2022/10/27 04:02:47;;;;;;;;;;;12.70;99.90;;;;;;5047026;28;19917;-79
2022/10/27 04:05:13;;;;;;;;;;;12.80;99.90;;;;;;5049106;28;19960;-78
2022/10/27 04:07:39;;;;;;;;;;;12.70;99.90;;;;;;5047708;28;20282;-78
2022/10/27 04:10:05;;;;;;;;;;;12.70;99.90;;;;;;5040798;28;19927;-77
2022/10/27 04:12:31;;;;;;;;;;;12.70;99.90;;;;;;5036708;28;19936;-78
2022/10/27 04:14:56;;;;;;;;;;;12.60;99.90;;;;;;5063074;28;19916;-78
2022/10/27 04:17:22;;;;;;;;;;;12.60;99.90;;;;;;5057032;28;19928;-78
2022/10/27 04:19:47;;;;;;;;;;;12.60;99.90;;;;;;5044034;28;19927;-78
2022/10/27 04:22:13;;;;;;;;;;;12.50;99.90;;;;;;5037596;28;19917;-78
2022/10/27 04:24:39;;;;;;;;;;;12.50;99.90;;;;;;5052627;28;19924;-78
2022/10/27 04:27:05;;;;;;;;;;;12.50;99.90;;;;;;5059644;28;20002;-78
2022/10/27 04:29:30;;;;;;;;;;;12.50;99.90;;;;;;5046128;28;20309;-77
2022/10/27 04:31:56;;;;;;;;;;;12.50;99.90;;;;;;5056990;28;19947;-78
2022/10/27 04:34:21;;;;;;;;;;;12.40;99.90;;;;;;5066177;28;19926;-78
2022/10/27 04:36:47;;;;;;;;;;;12.40;99.90;;;;;;5040838;28;20356;-78
2022/10/27 04:39:14;;;;;;;;;;;12.40;99.90;;;;;;5063928;28;19916;-77
2022/10/27 04:41:40;;;;;;;;;;;12.40;99.90;;;;;;5062106;28;19923;-77
2022/10/27 04:44:06;;;;;;;;;;;12.30;99.90;;;;;;5069057;28;19932;-77
2022/10/27 04:46:32;;;;;;;;;;;12.30;99.90;;;;;;5059362;28;19924;-77
2022/10/27 04:48:57;;;;;;;;;;;12.30;99.90;;;;;;5069980;28;19917;-77
2022/10/27 04:51:23;;;;;;;;;;;12.30;99.90;;;;;;5058350;28;19924;-77
2022/10/27 04:53:49;;;;;;;;;;;12.30;99.90;;;;;;5060516;28;19965;-77
2022/10/27 04:56:14;;;;;;;;;;;12.30;99.90;;;;;;5062848;28;19921;-78
2022/10/27 04:58:40;;;;;;;;;;;12.30;99.90;;;;;;5068409;28;19916;-77
2022/10/27 05:01:09;;;;;;;;;;;12.20;99.90;;;;;;5053676;28;19917;-77
2022/10/27 05:03:35;;;;;;;;;;;12.20;99.90;;;;;;5047126;28;19924;-78
2022/10/27 05:06:01;;;;;;;;;;;12.10;99.90;;;;;;5035207;28;19920;-78
2022/10/27 05:08:27;;;;;;;;;;;12.10;99.90;;;;;;5052657;28;19923;-78
2022/10/27 05:10:53;;;;;;;;;;;12.10;99.90;;;;;;5051672;28;20293;-78
2022/10/27 05:13:20;;;;;;;;;;;12.00;99.90;;;;;;5048599;28;20337;-78
2022/10/27 05:15:45;;;;;;;;;;;12.00;99.90;;;;;;5053264;28;19924;-78
2022/10/27 05:18:11;;;;;;;;;;;11.90;99.90;;;;;;5036712;28;20358;-78
2022/10/27 05:20:36;;;;;;;;;;;11.90;99.90;;;;;;5058741;28;19920;-78
2022/10/27 05:23:02;;;;;;;;;;;11.80;99.90;;;;;;5050333;28;19923;-77
2022/10/27 05:25:28;;;;;;;;;;;11.80;99.90;;;;;;5051952;28;19947;-78
2022/10/27 05:28:04;;;;;;;;;;;11.70;99.90;;;;;;5065858;28;20416;-78
2022/10/27 05:30:29;;;;;;;;;;;11.70;99.90;;;;;;5059944;28;19923;-78
2022/10/27 05:32:55;;;;;;;;;;;11.60;99.90;;;;;;5063039;28;19920;-78
2022/10/27 05:35:21;;;;;;;;;;;11.60;99.90;;;;;;5068925;28;19925;-77
2022/10/27 05:37:46;;;;;;;;;;;11.60;99.90;;;;;;5032093;28;19920;-77
2022/10/27 05:40:12;;;;;;;;;;;11.70;99.90;;;;;;5058196;28;19926;-77
2022/10/27 05:42:39;;;;;;;;;;;11.70;99.90;;;;;;5041921;28;19923;-78
2022/10/27 05:45:04;;;;;;;;;;;11.80;99.90;;;;;;5066318;28;20349;-78
2022/10/27 05:47:30;;;;;;;;;;;11.90;99.90;;;;;;5055526;28;19917;-77
2022/10/27 05:49:56;;;;;;;;;;;11.90;99.90;;;;;;5065541;28;20003;-78
2022/10/27 05:52:21;;;;;;;;;;;11.90;99.90;;;;;;5065062;28;19921;-77
2022/10/27 05:54:47;;;;;;;;;;;12.00;99.90;;;;;;5066131;28;19920;-82
2022/10/27 05:57:12;;;;;;;;;;;12.00;99.90;;;;;;5014924;28;19917;-77
2022/10/27 05:59:38;;;;;;;;;;;12.10;99.90;;;;;;5069273;28;20419;-78
2022/10/27 06:02:03;;;;;;;;;;;12.20;99.90;;;;;;5058471;28;19952;-78
2022/10/27 06:04:29;;;;;;;;;;;12.20;99.90;;;;;;5049695;28;19916;-78
2022/10/27 06:06:56;;;;;;;;;;;12.20;99.90;;;;;;5038411;28;19920;-77
2022/10/27 06:09:21;;;;;;;;;;;12.20;99.90;;;;;;5077542;28;19916;-79
2022/10/27 06:11:47;;;;;;;;;;;12.20;99.90;;;;;;5050114;28;20010;-79
2022/10/27 06:14:13;;;;;;;;;;;12.30;99.90;;;;;;5049002;28;19917;-78
2022/10/27 06:16:39;;;;;;;;;;;12.20;99.90;;;;;;5057991;28;19927;-78
2022/10/27 06:19:05;;;;;;;;;;;12.30;99.90;;;;;;5062106;28;19925;-77
2022/10/27 06:21:30;;;;;;;;;;;12.30;99.90;;;;;;5045272;28;19916;-77
2022/10/27 06:23:56;;;;;;;;;;;12.20;99.90;;;;;;5022915;28;20331;-78
2022/10/27 06:26:21;;;;;;;;;;;12.20;99.90;;;;;;5064987;28;19924;-78
2022/10/27 06:28:47;;;;;;;;;;;12.20;99.90;;;;;;5060379;28;19923;-78
2022/10/27 06:31:13;;;;;;;;;;;12.20;99.90;;;;;;5062042;28;19921;-78
2022/10/27 06:33:38;;;;;;;;;;;12.20;99.90;;;;;;5039839;28;19924;-78
2022/10/27 06:36:04;;;;;;;;;;;12.20;99.90;;;;;;5063892;28;20004;-78
2022/10/27 06:38:31;;;;;;;;;;;12.20;99.90;;;;;;5057621;28;19932;-80
2022/10/27 06:41:00;;;;;;;;;;;12.20;99.90;;;;;;5064254;28;20304;-78
2022/10/27 06:43:28;;;;;;;;;;;12.30;99.90;;;;;;5041004;28;19924;-81
2022/10/27 06:45:53;;;;;;;;;;;12.30;99.90;;;;;;5039068;28;19916;-79
2022/10/27 06:48:19;;;;;;;;;;;12.40;99.90;;;;;;5037221;28;20039;-79
2022/10/27 06:50:45;;;;;;;;;;;12.40;99.90;;;;;;5041202;28;19924;-78
2022/10/27 06:53:11;;;;;;;;;;;12.40;99.90;;;;;;5054798;28;20293;-79
2022/10/27 06:55:37;;;;;;;;;;;12.40;99.90;;;;;;5061716;28;20411;-79
2022/10/27 06:58:02;;;;;;;;;;;12.50;99.90;;;;;;5059576;28;19952;-79
2022/10/27 07:00:28;;;;;;;;;;;12.50;99.90;;;;;;5055171;28;19939;-78
2022/10/27 07:02:55;;;;;;;;;;;12.50;99.90;;;;;;5039568;28;21484;-82
2022/10/27 07:05:20;;;;;;;;;;;12.50;99.90;;;;;;5066713;28;19922;-80
2022/10/27 07:07:48;;;;;;;;;;;12.60;99.90;;;;;;5051550;28;19916;-78
2022/10/27 07:10:14;;;;;;;;;;;12.60;99.90;;;;;;5051174;28;19920;-78
2022/10/27 07:12:49;;;;;;;;;;;12.70;99.90;;;;;;5058348;28;20011;-80
2022/10/27 07:15:15;;;;;;;;;;;12.70;99.90;;;;;;5054360;28;19917;-78
2022/10/27 07:17:40;;;;;;;;;;;12.70;99.90;;;;;;5063348;28;19916;-78
2022/10/27 07:20:06;;;;;;;;;;;12.70;99.90;;;;;;5048373;28;19974;-79
2022/10/27 07:22:32;;;;;;;;;;;12.70;99.90;;;;;;5066422;28;19924;-79
2022/10/27 07:24:57;;;;;;;;;;;12.70;99.90;;;;;;5065426;28;19920;-79
2022/10/27 07:27:30;;;;;;;;;;;12.70;99.90;;;;;;5036677;28;19925;-79
2022/10/27 07:29:55;;;;;;;;;;;12.70;99.90;;;;;;5059367;28;19924;-77
2022/10/27 07:32:22;;;;;;;;;;;12.70;99.90;;;;;;5052201;28;19924;-77
2022/10/27 07:34:47;;;;;;;;;;;12.70;99.90;;;;;;5035208;28;19920;-77
2022/10/27 07:37:13;;;;;;;;;;;12.70;99.90;;;;;;5054877;28;19917;-78
2022/10/27 07:39:38;;;;;;;;;;;12.70;99.90;;;;;;5032534;28;20277;-78
2022/10/27 07:42:04;;;;;;;;;;;12.80;99.90;;;;;;5064867;28;20024;-78
2022/10/27 07:44:29;;;;;;;;;;;12.80;99.90;;;;;;5043428;28;19916;-78
2022/10/27 07:46:55;;;;;;;;;;;12.80;99.90;;;;;;5060893;28;19931;-76
2022/10/27 07:49:23;;;;;;;;;;;12.90;99.90;;;;;;5007723;28;19920;-76
2022/10/27 07:51:49;;;;;;;;;;;12.90;99.90;;;;;;5051193;28;19921;-77
2022/10/27 07:54:14;;;;;;;;;;;13.00;99.90;;;;;;5054110;28;19924;-77
2022/10/27 07:56:40;;;;;;;;;;;13.10;99.90;;;;;;5048314;28;19923;-76
2022/10/27 07:59:06;;;;;;;;;;;13.10;99.90;;;;;;5051540;28;20278;-77
2022/10/27 08:01:32;;;;;;;;;;;13.20;99.90;;;;;;5065164;28;19968;-77
2022/10/27 08:03:57;;;;;;;;;;;13.20;99.90;;;;;;5059201;28;19916;-78
2022/10/27 08:06:23;;;;;;;;;;;13.30;99.90;;;;;;5043926;28;19916;-78
2022/10/27 08:08:48;;;;;;;;;;;13.40;99.90;;;;;;5071389;28;19920;-76
2022/10/27 08:11:14;;;;;;;;;;;13.50;99.90;;;;;;5065870;28;19924;-76
2022/10/27 08:13:39;;;;;;;;;;;13.50;99.90;;;;;;5057783;28;19974;-77
2022/10/27 08:16:05;;;;;;;;;;;13.60;99.90;;;;;;5061199;28;20569;-78
2022/10/27 08:18:31;;;;;;;;;;;13.60;99.90;;;;;;5044551;28;19917;-77
2022/10/27 08:20:56;;;;;;;;;;;13.70;99.90;;;;;;5068705;28;20305;-77
2022/10/27 08:23:24;;;;;;;;;;;13.80;99.90;;;;;;5066513;28;19916;-77
2022/10/27 08:25:50;;;;;;;;;;;13.90;99.90;;;;;;5045491;28;19917;-77
2022/10/27 08:28:16;;;;;;;;;;;14.00;99.90;;;;;;5049240;28;20385;-77
2022/10/27 08:30:42;;;;;;;;;;;14.20;99.90;;;;;;5050075;28;19923;-77
2022/10/27 08:33:08;;;;;;;;;;;14.20;99.90;;;;;;5054095;28;20022;-77
2022/10/27 08:35:34;;;;;;;;;;;14.30;99.90;;;;;;5053420;28;20266;-77
2022/10/27 08:38:05;;;;;;;;;;;14.30;99.90;;;;;;5054849;28;19924;-77
2022/10/27 08:40:41;;;;;;;;;;;14.30;99.90;;;;;;5037287;28;19925;-75
2022/10/27 08:43:19;;;;;;;;;;;14.40;99.90;;;;;;5051733;28;20285;-77
2022/10/27 08:45:50;;;;;;;;;;;14.40;99.90;;;;;;5055646;28;19924;-76
2022/10/27 08:48:17;;;;;;;;;;;14.40;99.90;;;;;;5054392;28;19924;-76
2022/10/27 08:50:43;;;;;;;;;;;14.40;99.90;;;;;;5059055;28;19920;-76
2022/10/27 08:53:12;;;;;;;;;;;14.40;99.90;;;;;;5041991;28;19929;-77
2022/10/27 08:55:44;;;;;;;;;;;14.50;99.90;;;;;;5057242;28;20120;-75
2022/10/27 08:58:30;;;;;;;;;;;14.60;99.90;;;;;;5051903;28;19956;-75
2022/10/27 09:00:59;;;;;;;;;;;14.70;99.90;;;;;;5064770;28;19920;-75
2022/10/27 09:03:43;;;;;;;;;;;14.80;99.90;;;;;;5064111;28;19924;-75
2022/10/27 09:06:20;;;;;;;;;;;14.90;99.90;;;;;;5053580;28;19916;-74
2022/10/27 09:09:04;;;;;;;;;;;15.10;99.90;;;;;;5057254;28;19970;-74
2022/10/27 09:11:30;;;;;;;;;;;15.20;99.90;;;;;;5050232;28;19942;-74
2022/10/27 09:14:10;;;;;;;;;;;15.40;99.90;;;;;;5062413;28;19963;-75
2022/10/27 09:16:48;;;;;;;;;;;15.40;99.90;;;;;;5066047;28;19920;-75
2022/10/27 09:19:17;;;;;;;;;;;15.60;99.90;;;;;;5064082;28;20464;-75
2022/10/27 09:21:43;;;;;;;;;;;15.70;99.90;;;;;;5053568;28;20793;-75
2022/10/27 09:24:13;;;;;;;;;;;15.80;99.90;;;;;;5054083;28;19996;-77
2022/10/27 09:26:41;;;;;;;;;;;15.90;99.90;;;;;;5058991;28;19917;-75
2022/10/27 09:29:14;;;;;;;;;;;16.00;99.90;;;;;;5065494;28;19923;-75
2022/10/27 09:32:01;;;;;;;;;;;16.10;99.90;;;;;;5066432;28;19920;-76
2022/10/27 09:34:34;;;;;;;;;;;16.20;99.90;;;;;;5067260;28;20010;-75
2022/10/27 09:37:00;;;;;;;;;;;16.20;99.90;;;;;;5047718;28;19927;-76
2022/10/27 09:39:26;;;;;;;;;;;16.30;99.90;;;;;;5053254;28;19920;-75
2022/10/27 09:41:51;;;;;;;;;;;16.40;99.90;;;;;;5053996;28;19928;-75
2022/10/27 09:44:19;;;;;;;;;;;16.40;99.90;;;;;;5058200;28;20362;-75
2022/10/27 09:46:47;;;;;;;;;;;16.40;99.90;;;;;;5051849;28;19939;-76
2022/10/27 09:49:13;;;;;;;;;;;16.50;99.90;;;;;;5053370;28;19960;-75
2022/10/27 09:52:00;;;;;;;;;;;16.60;99.90;;;;;;5056331;28;19920;-76
2022/10/27 09:54:27;;;;;;;;;;;16.70;99.90;;;;;;5049276;28;19976;-76
2022/10/27 09:56:53;;;;;;;;;;;16.80;99.90;;;;;;5043697;28;20294;-75
2022/10/27 09:59:20;;;;;;;;;;;16.80;99.90;;;;;;5052174;28;19917;-75
2022/10/27 10:01:58;;;;;;;;;;;16.90;99.90;;;;;;5046167;28;19970;-75
2022/10/27 10:04:29;;;;;;;;;;;17.00;99.90;;;;;;5058380;28;19991;-76
2022/10/27 10:06:56;;;;;;;;;;;17.10;99.90;;;;;;5038528;28;20127;-75
2022/10/27 10:09:24;;;;;;;;;;;17.10;99.90;;;;;;5058562;28;19916;-76
2022/10/27 10:11:50;;;;;;;;;;;17.20;99.90;;;;;;5063511;28;19920;-76
2022/10/27 10:14:21;;;;;;;;;;;17.20;99.90;;;;;;5053769;28;19971;-75
2022/10/27 10:16:46;;;;;;;;;;;17.20;99.90;;;;;;5059145;28;20044;-76
2022/10/27 10:19:16;;;;;;;;;;;17.20;99.90;;;;;;5063236;28;19956;-75
2022/10/27 10:21:52;;;;;;;;;;;17.30;99.90;;;;;;5055825;28;19923;-76
2022/10/27 10:24:23;;;;;;;;;;;17.30;99.90;;;;;;5048432;28;19923;-76
2022/10/27 10:26:53;;;;;;;;;;;17.40;99.90;;;;;;5058036;28;20280;-75
2022/10/27 10:29:26;;;;;;;;;;;17.50;99.90;;;;;;5056996;28;19917;-75
2022/10/27 10:31:53;;;;;;;;;;;17.60;99.90;;;;;;5038957;28;20004;-76
2022/10/27 10:34:28;;;;;;;;;;;17.70;99.90;;;;;;5054754;28;19920;-77
2022/10/27 10:36:54;;;;;;;;;;;17.90;99.90;;;;;;5042074;28;20397;-76
2022/10/27 10:39:24;;;;;;;;;;;17.90;99.90;;;;;;5035384;28;19916;-76
2022/10/27 10:42:11;;;;;;;;;;;18.00;99.90;;;;;;5047716;28;19920;-76
2022/10/27 10:44:36;;;;;;;;;;;18.00;99.90;;;;;;5056860;28;19924;-76
2022/10/27 10:47:02;;;;;;;;;;;18.10;99.90;;;;;;5055340;28;19916;-76
2022/10/27 10:49:31;;;;;;;;;;;18.10;99.90;;;;;;5040531;28;20339;-76
2022/10/27 10:51:58;;;;;;;;;;;18.20;99.90;;;;;;5051957;28;19920;-75
2022/10/27 10:54:43;;;;;;;;;;;18.20;99.90;;;;;;5057674;28;19916;-76
2022/10/27 10:57:31;;;;;;;;;;;18.20;99.90;;;;;;5048527;28;19923;-75
2022/10/27 10:59:57;;;;;;;;;;;18.30;99.90;;;;;;5029998;28;19917;-78
2022/10/27 11:02:31;;;;;;;;;;;18.40;99.90;;;;;;5054721;28;19931;-80
2022/10/27 11:04:58;;;;;;;;;;;18.50;99.90;;;;;;5057744;28;20403;-79
2022/10/27 11:07:31;;;;;;;;;;;18.60;99.90;;;;;;5055093;28;19916;-77
2022/10/27 11:10:16;;;;;;;;;;;18.70;99.90;;;;;;5035152;28;19981;-78
2022/10/27 11:12:48;;;;;;;;;;;18.90;99.90;;;;;;5039026;28;19927;-78
2022/10/27 11:15:23;;;;;;;;;;;19.00;99.90;;;;;;5060690;28;19975;-78
2022/10/27 11:17:50;;;;;;;;;;;19.10;99.90;;;;;;5056373;28;20045;-80
2022/10/27 11:20:35;;;;;;;;;;;19.10;99.90;;;;;;5056873;28;20007;-78
2022/10/27 11:23:22;;;;;;;;;;;19.10;99.90;;;;;;5063040;28;19927;-78
2022/10/27 11:25:47;;;;;;;;;;;19.10;99.90;;;;;;5042486;28;20020;-79
2022/10/27 11:28:26;;;;;;;;;;;19.20;99.90;;;;;;5042727;28;19931;-77
2022/10/27 11:31:10;;;;;;;;;;;19.20;99.90;;;;;;5052023;28;19999;-76
2022/10/27 11:33:47;;;;;;;;;;;19.30;99.90;;;;;;5054445;28;19925;-76
2022/10/27 11:36:22;;;;;;;;;;;19.30;99.90;;;;;;5051606;28;19916;-75
2022/10/27 11:38:48;;;;;;;;;;;19.30;99.90;;;;;;5053520;28;19931;-73
2022/10/27 11:44:24;;;;;;;;;;;19.40;99.90;;;;;;5112051;27;19927;-75
2022/10/27 11:50:02;;;;;;;0.40;0.40;;;19.70;99.90;;;;;;5094823;27;20897;-76
2022/10/27 11:52:39;;;;;;;0.30;0.30;;;19.80;99.90;;;;;;5080941;28;20572;-74
2022/10/27 11:55:07;;;;;;;0.28;0.28;;;19.90;99.90;;;;;;5051730;28;20556;-74
2022/10/27 11:58:09;;;;;;;0.40;0.40;;;20.00;99.90;;;;;;5086991;28;20070;-73
2022/10/27 12:01:00;;;;;;;0.30;0.30;;;20.10;99.90;;;;;;5082337;28;20089;-75
2022/10/27 12:03:51;;;;;;;0.25;0.25;;;20.10;99.90;;;;;;5101700;28;20052;-74
2022/10/27 12:06:37;;;;;;;0.20;0.20;;;20.20;99.90;;;;;;5062149;28;20059;-74
2022/10/27 12:09:15;;;;;;;0.28;0.28;;;20.30;99.90;;;;;;5078618;28;20045;-75
2022/10/27 12:11:54;;;;;;;0.20;0.20;;;20.40;99.90;;;;;;5086156;27;20131;-77
2022/10/27 12:14:30;;;;;;;0.70;0.70;;;20.50;99.90;;;;;;5077335;28;20093;-77
2022/10/27 12:17:26;;;;;;;0.20;0.20;;;20.40;99.90;;;;;;5100806;28;20828;-75
2022/10/27 12:19:55;;;;;;;0.20;0.20;;;20.30;99.90;;;;;;5109221;28;20047;-74
2022/10/27 12:22:38;;;;;;;0.20;0.20;;;20.20;99.90;;;;;;5081833;28;20441;-74
2022/10/27 12:25:19;;;;;;;0.30;0.30;;;20.20;99.90;;;;;;5058765;28;20048;-74
2022/10/27 12:27:48;;;;;;;0.20;0.20;;;20.20;99.90;;;;;;5073308;28;20076;-74
2022/10/27 12:30:17;;;;;;;0.20;0.20;;;20.20;99.90;;;;;;5066287;28;20051;-75
2022/10/27 12:33:01;;;;;;;0.20;0.20;;;20.30;99.90;;;;;;5053218;28;20037;-73
2022/10/27 12:35:43;;;;;;;0.45;0.40;;;20.30;99.90;;;;;;5060112;28;20132;-73
2022/10/27 12:38:26;;;;;;;0.30;0.30;;;20.40;99.90;;;;;;5081642;28;20487;-73
2022/10/27 12:41:04;;;;;;;0.40;0.40;;;20.30;99.90;;;;;;5058236;28;20040;-74
2022/10/27 12:43:41;;;;;;;0.25;0.25;;;20.20;99.90;;;;;;5063918;28;20040;-74
2022/10/27 12:46:09;;;;;;;0.30;0.30;;;20.10;99.90;;;;;;5069584;28;20551;-74
2022/10/27 12:48:49;;;;;;;0.20;0.20;;;20.20;99.90;;;;;;5069906;28;20143;-74
2022/10/27 12:51:33;;;;;;;0.17;0.17;;;20.20;99.90;;;;;;5066036;28;20056;-73
2022/10/27 12:54:27;;;;;;;0.15;0.15;;;20.20;99.90;;;;;;5078405;28;20051;-74
2022/10/27 12:57:42;;;;;;;0.17;0.17;;;20.30;99.90;;;;;;5059916;28;20064;-73
2022/10/27 13:00:22;;;;;;;0.55;0.40;;;20.40;99.90;;;;;;5072039;28;20516;-74
2022/10/27 13:03:12;;;;;;;0.20;0.20;;;20.40;99.90;;;;;;5058191;28;20098;-74
2022/10/27 13:06:09;;;;;;;0.10;0.10;;;20.40;99.90;;;;;;5052538;28;20126;-74
2022/10/27 13:09:04;;;;;;;0.15;0.15;;;20.30;99.90;;;;;;5054743;28;20127;-74
2022/10/27 13:12:07;;;;;;;0.30;0.30;;;20.30;99.90;;;;;;5053959;28;20118;-73
2022/10/27 13:14:42;;;;;;;0.20;0.20;;;20.20;99.90;;;;;;5023497;28;20044;-74
2022/10/27 13:17:46;;;;;;;0.30;0.30;;;20.10;99.90;;;;;;5047643;28;20045;-73
2022/10/27 13:20:42;;;;;;;0.20;0.20;;;20.20;99.90;;;;;;5052198;28;20037;-73
2022/10/27 13:23:18;;;;;;;0.10;0.10;;;20.30;99.90;;;;;;5048235;28;20462;-74
2022/10/27 13:26:10;;;;;;;0.20;0.20;;;20.30;99.90;;;;;;5049050;28;20096;-77
2022/10/27 13:28:43;;;;;;;1.00;0.90;;;20.20;99.90;;;;;;5052571;28;20128;-73
2022/10/27 13:31:26;;;;;;;0.30;0.30;;;20.10;99.90;;;;;;5052712;28;20032;-74
2022/10/27 13:34:18;;;;;;;0.28;0.28;;;19.90;99.90;;;;;;5022010;28;20471;-75
2022/10/27 13:36:44;;;;;;;0.40;0.40;;;19.70;99.90;;;;;;5045891;28;20045;-75
2022/10/27 13:39:12;;;;;;;1.02;0.65;;;19.70;99.90;;;;;;5052241;28;20076;-74
2022/10/27 13:42:03;;;;;;;1.08;0.68;;;19.80;99.90;;;;;;5049630;28;20048;-74
2022/10/27 13:44:37;;;;;;;0.17;0.17;;;19.80;99.90;;;;;;5044860;28;20076;-75
2022/10/27 13:47:02;;;;;;;0.20;0.20;;;19.80;99.90;;;;;;5053062;28;20040;-75
2022/10/27 13:49:40;;;;;;;0.55;0.52;;;19.70;99.90;;;;;;5055912;28;20394;-74
2022/10/27 13:52:15;;;;;;;0.30;0.30;;;19.50;99.90;;;;;;5066641;28;20045;-74
2022/10/27 13:54:53;;;;;;;0.50;0.50;;;19.40;99.90;;;;;;5031079;28;20091;-75
2022/10/27 13:57:56;;;;;;;0.30;0.30;;;19.30;99.90;;;;;;5049034;28;20462;-75
2022/10/27 14:00:50;;;;;;;0.20;0.20;;;19.20;99.90;;;;;;5051346;28;20194;-75
2022/10/27 14:03:31;;;;;;;0.40;0.40;;;19.10;99.90;;;;;;5031615;28;20040;-75
2022/10/27 14:05:57;;;;;;;0.20;0.20;;;19.00;99.90;;;;;;5050815;28;20037;-74
2022/10/27 14:08:24;;;;;;;0.20;0.20;;;18.90;99.90;;;;;;5035303;28;20498;-74
2022/10/27 14:10:52;;;;;;;0.32;0.32;;;18.70;99.90;;;;;;5051216;28;20486;-75